Princetown, New York
Current Conditions -  °F | °C
As of 3:51 AM on Sunday 21 Dec 2014 (Local Time) from KALB Reporting Station
Light Snow Light Snow  
Wind Chill: 23°   Ceiling: 3500
Heat Index: 28°   Visibility: 10mi
Dew Point: 20°   Wind: 5mph
Humidity: 72%   Direction: 360°N
Pressure: 30.31"   Gusts: NA
Location:  42.7716°N, 74.0887°W
Report Text: KALB 210851Z 36004KT 10SM -SN SCT022 OVC035 M02/M07 A3031 RMK AO2 SLP267 P0000 60000 T10221067 58002
Loading
Personal Weather Stations






























Interactive Weather Map New forecast layout! Learn more

10-Day Weather Forecast

Advertisements
Track Severe Weather on mobile